sensor_id;sensor_type;location;lat;lon;timestamp;P1;durP1;ratioP1;P2;durP2;ratioP2
70169;SDS011;57543;45.442;9.212;2024-03-17T00:02:15;24.05;;;16.08;;
70169;SDS011;57543;45.442;9.212;2024-03-17T00:05:19;25.75;;;16.20;;
70169;SDS011;57543;45.442;9.212;2024-03-17T00:08:22;32.08;;;18.67;;
70169;SDS011;57543;45.442;9.212;2024-03-17T00:11:26;26.17;;;16.03;;
70169;SDS011;57543;45.442;9.212;2024-03-17T00:14:29;25.63;;;15.93;;
70169;SDS011;57543;45.442;9.212;2024-03-17T00:17:33;27.35;;;16.42;;
70169;SDS011;57543;45.442;9.212;2024-03-17T00:20:37;27.10;;;16.63;;
70169;SDS011;57543;45.442;9.212;2024-03-17T00:23:44;28.45;;;17.85;;
70169;SDS011;57543;45.442;9.212;2024-03-17T00:26:48;26.63;;;16.50;;
70169;SDS011;57543;45.442;9.212;2024-03-17T00:29:52;27.05;;;16.73;;
70169;SDS011;57543;45.442;9.212;2024-03-17T00:32:55;29.55;;;18.10;;
70169;SDS011;57543;45.442;9.212;2024-03-17T00:36:01;30.08;;;17.52;;
70169;SDS011;57543;45.442;9.212;2024-03-17T00:39:05;28.02;;;17.08;;
70169;SDS011;57543;45.442;9.212;2024-03-17T00:42:09;30.77;;;18.53;;
70169;SDS011;57543;45.442;9.212;2024-03-17T00:45:13;32.00;;;19.13;;
70169;SDS011;57543;45.442;9.212;2024-03-17T00:48:17;27.63;;;17.38;;
70169;SDS011;57543;45.442;9.212;2024-03-17T00:51:20;30.90;;;18.63;;
70169;SDS011;57543;45.442;9.212;2024-03-17T00:54:24;32.45;;;19.42;;
70169;SDS011;57543;45.442;9.212;2024-03-17T00:57:28;30.30;;;19.30;;
70169;SDS011;57543;45.442;9.212;2024-03-17T01:00:32;31.83;;;18.90;;
70169;SDS011;57543;45.442;9.212;2024-03-17T01:03:36;33.90;;;20.38;;
70169;SDS011;57543;45.442;9.212;2024-03-17T01:06:40;30.80;;;18.90;;
70169;SDS011;57543;45.442;9.212;2024-03-17T01:09:44;30.15;;;18.90;;
70169;SDS011;57543;45.442;9.212;2024-03-17T01:12:51;32.40;;;18.90;;
70169;SDS011;57543;45.442;9.212;2024-03-17T01:15:55;29.52;;;19.15;;
70169;SDS011;57543;45.442;9.212;2024-03-17T01:18:58;32.70;;;19.45;;
70169;SDS011;57543;45.442;9.212;2024-03-17T01:22:02;31.67;;;19.17;;
70169;SDS011;57543;45.442;9.212;2024-03-17T01:25:06;31.73;;;20.00;;
70169;SDS011;57543;45.442;9.212;2024-03-17T01:28:12;34.03;;;20.10;;
70169;SDS011;57543;45.442;9.212;2024-03-17T01:31:16;30.83;;;19.08;;
70169;SDS011;57543;45.442;9.212;2024-03-17T01:34:19;33.38;;;20.02;;
70169;SDS011;57543;45.442;9.212;2024-03-17T01:37:23;37.38;;;21.30;;
70169;SDS011;57543;45.442;9.212;2024-03-17T01:40:28;33.40;;;21.05;;
70169;SDS011;57543;45.442;9.212;2024-03-17T01:43:32;32.57;;;20.00;;
70169;SDS011;57543;45.442;9.212;2024-03-17T01:46:35;34.63;;;19.52;;
70169;SDS011;57543;45.442;9.212;2024-03-17T01:49:39;32.38;;;19.58;;
70169;SDS011;57543;45.442;9.212;2024-03-17T01:52:43;33.72;;;20.63;;
70169;SDS011;57543;45.442;9.212;2024-03-17T01:55:47;30.52;;;19.77;;
70169;SDS011;57543;45.442;9.212;2024-03-17T01:58:51;27.93;;;18.30;;
70169;SDS011;57543;45.442;9.212;2024-03-17T02:01:55;30.02;;;19.73;;
70169;SDS011;57543;45.442;9.212;2024-03-17T02:04:59;32.65;;;20.63;;
70169;SDS011;57543;45.442;9.212;2024-03-17T02:08:04;34.92;;;20.65;;
70169;SDS011;57543;45.442;9.212;2024-03-17T02:11:08;36.08;;;21.60;;
70169;SDS011;57543;45.442;9.212;2024-03-17T02:14:29;34.10;;;19.33;;
70169;SDS011;57543;45.442;9.212;2024-03-17T02:17:33;34.35;;;20.25;;
70169;SDS011;57543;45.442;9.212;2024-03-17T02:20:36;35.03;;;19.85;;
70169;SDS011;57543;45.442;9.212;2024-03-17T02:23:58;33.58;;;20.65;;
70169;SDS011;57543;45.442;9.212;2024-03-17T02:27:02;32.03;;;20.25;;
70169;SDS011;57543;45.442;9.212;2024-03-17T02:30:06;31.97;;;19.33;;
70169;SDS011;57543;45.442;9.212;2024-03-17T02:33:12;36.13;;;21.50;;
70169;SDS011;57543;45.442;9.212;2024-03-17T02:36:16;32.13;;;19.65;;
70169;SDS011;57543;45.442;9.212;2024-03-17T02:39:20;31.27;;;19.38;;
70169;SDS011;57543;45.442;9.212;2024-03-17T02:42:39;34.00;;;20.15;;
70169;SDS011;57543;45.442;9.212;2024-03-17T02:45:45;30.97;;;19.07;;
70169;SDS011;57543;45.442;9.212;2024-03-17T02:48:52;33.47;;;20.20;;
70169;SDS011;57543;45.442;9.212;2024-03-17T02:51:56;34.13;;;18.90;;
70169;SDS011;57543;45.442;9.212;2024-03-17T02:55:00;29.63;;;18.63;;
70169;SDS011;57543;45.442;9.212;2024-03-17T02:58:03;31.00;;;18.20;;
70169;SDS011;57543;45.442;9.212;2024-03-17T03:01:07;31.23;;;18.67;;
70169;SDS011;57543;45.442;9.212;2024-03-17T03:04:12;33.75;;;18.80;;
70169;SDS011;57543;45.442;9.212;2024-03-17T03:07:16;29.50;;;19.90;;
70169;SDS011;57543;45.442;9.212;2024-03-17T03:10:20;29.77;;;18.58;;
70169;SDS011;57543;45.442;9.212;2024-03-17T03:13:24;27.77;;;16.80;;
70169;SDS011;57543;45.442;9.212;2024-03-17T03:16:27;31.27;;;17.37;;
70169;SDS011;57543;45.442;9.212;2024-03-17T03:19:31;35.63;;;18.35;;
70169;SDS011;57543;45.442;9.212;2024-03-17T03:22:35;30.80;;;17.45;;
70169;SDS011;57543;45.442;9.212;2024-03-17T03:25:39;31.27;;;17.42;;
70169;SDS011;57543;45.442;9.212;2024-03-17T03:28:42;31.92;;;18.20;;
70169;SDS011;57543;45.442;9.212;2024-03-17T03:31:46;32.20;;;18.27;;
70169;SDS011;57543;45.442;9.212;2024-03-17T03:34:51;29.35;;;18.40;;
70169;SDS011;57543;45.442;9.212;2024-03-17T03:37:55;31.35;;;18.13;;
70169;SDS011;57543;45.442;9.212;2024-03-17T03:41:05;28.10;;;17.25;;
70169;SDS011;57543;45.442;9.212;2024-03-17T03:44:19;29.77;;;17.10;;
70169;SDS011;57543;45.442;9.212;2024-03-17T03:47:22;31.93;;;17.73;;
70169;SDS011;57543;45.442;9.212;2024-03-17T03:50:26;30.27;;;17.85;;
70169;SDS011;57543;45.442;9.212;2024-03-17T03:53:30;30.48;;;17.55;;
70169;SDS011;57543;45.442;9.212;2024-03-17T03:56:34;28.40;;;17.83;;
70169;SDS011;57543;45.442;9.212;2024-03-17T03:59:39;31.20;;;18.17;;
70169;SDS011;57543;45.442;9.212;2024-03-17T04:02:42;32.30;;;18.00;;
70169;SDS011;57543;45.442;9.212;2024-03-17T04:05:45;32.80;;;18.27;;
70169;SDS011;57543;45.442;9.212;2024-03-17T04:08:50;30.83;;;18.67;;
70169;SDS011;57543;45.442;9.212;2024-03-17T04:11:53;30.08;;;17.80;;
70169;SDS011;57543;45.442;9.212;2024-03-17T04:14:57;31.73;;;17.92;;
70169;SDS011;57543;45.442;9.212;2024-03-17T04:18:01;32.63;;;18.10;;
70169;SDS011;57543;45.442;9.212;2024-03-17T04:21:05;32.42;;;18.98;;
70169;SDS011;57543;45.442;9.212;2024-03-17T04:24:12;31.13;;;17.52;;
70169;SDS011;57543;45.442;9.212;2024-03-17T04:27:16;35.40;;;19.17;;
70169;SDS011;57543;45.442;9.212;2024-03-17T04:30:19;35.10;;;19.10;;
70169;SDS011;57543;45.442;9.212;2024-03-17T04:33:22;31.90;;;17.73;;
70169;SDS011;57543;45.442;9.212;2024-03-17T04:36:27;29.58;;;18.17;;
70169;SDS011;57543;45.442;9.212;2024-03-17T04:39:30;31.75;;;17.20;;
70169;SDS011;57543;45.442;9.212;2024-03-17T04:42:34;29.08;;;17.48;;
70169;SDS011;57543;45.442;9.212;2024-03-17T04:45:38;33.25;;;19.77;;
70169;SDS011;57543;45.442;9.212;2024-03-17T04:48:41;30.03;;;18.40;;
70169;SDS011;57543;45.442;9.212;2024-03-17T04:51:45;33.05;;;19.00;;
70169;SDS011;57543;45.442;9.212;2024-03-17T04:54:48;30.52;;;18.05;;
70169;SDS011;57543;45.442;9.212;2024-03-17T04:57:51;31.98;;;18.65;;
70169;SDS011;57543;45.442;9.212;2024-03-17T05:00:55;35.83;;;19.48;;
70169;SDS011;57543;45.442;9.212;2024-03-17T05:04:00;33.30;;;18.90;;
70169;SDS011;57543;45.442;9.212;2024-03-17T05:07:03;34.10;;;19.58;;
70169;SDS011;57543;45.442;9.212;2024-03-17T05:10:07;34.25;;;20.15;;
70169;SDS011;57543;45.442;9.212;2024-03-17T05:13:12;37.03;;;20.20;;
70169;SDS011;57543;45.442;9.212;2024-03-17T05:16:17;31.05;;;19.73;;
70169;SDS011;57543;45.442;9.212;2024-03-17T05:19:21;36.97;;;20.37;;
70169;SDS011;57543;45.442;9.212;2024-03-17T05:22:24;37.45;;;20.75;;
70169;SDS011;57543;45.442;9.212;2024-03-17T05:25:28;36.45;;;19.65;;
70169;SDS011;57543;45.442;9.212;2024-03-17T05:28:31;37.20;;;19.60;;
70169;SDS011;57543;45.442;9.212;2024-03-17T05:31:35;34.50;;;19.30;;
70169;SDS011;57543;45.442;9.212;2024-03-17T05:34:39;31.43;;;18.87;;
70169;SDS011;57543;45.442;9.212;2024-03-17T05:37:42;36.72;;;19.88;;
70169;SDS011;57543;45.442;9.212;2024-03-17T05:41:02;36.17;;;20.23;;
70169;SDS011;57543;45.442;9.212;2024-03-17T05:44:07;34.30;;;19.35;;
70169;SDS011;57543;45.442;9.212;2024-03-17T05:47:10;38.05;;;21.27;;
70169;SDS011;57543;45.442;9.212;2024-03-17T05:50:15;35.97;;;21.07;;
70169;SDS011;57543;45.442;9.212;2024-03-17T05:53:19;40.03;;;22.27;;
70169;SDS011;57543;45.442;9.212;2024-03-17T05:56:24;36.97;;;21.23;;
70169;SDS011;57543;45.442;9.212;2024-03-17T05:59:28;36.42;;;21.42;;
70169;SDS011;57543;45.442;9.212;2024-03-17T06:02:31;37.90;;;21.05;;
70169;SDS011;57543;45.442;9.212;2024-03-17T06:05:35;36.80;;;21.10;;
70169;SDS011;57543;45.442;9.212;2024-03-17T06:08:40;38.70;;;21.40;;
70169;SDS011;57543;45.442;9.212;2024-03-17T06:11:43;40.13;;;21.63;;
70169;SDS011;57543;45.442;9.212;2024-03-17T06:14:47;38.70;;;21.48;;
70169;SDS011;57543;45.442;9.212;2024-03-17T06:17:51;37.05;;;21.35;;
70169;SDS011;57543;45.442;9.212;2024-03-17T06:20:55;39.13;;;20.23;;
70169;SDS011;57543;45.442;9.212;2024-03-17T06:24:02;33.88;;;19.25;;
70169;SDS011;57543;45.442;9.212;2024-03-17T06:27:06;34.08;;;20.02;;
70169;SDS011;57543;45.442;9.212;2024-03-17T06:30:10;35.13;;;20.90;;
70169;SDS011;57543;45.442;9.212;2024-03-17T06:33:17;36.95;;;20.63;;
70169;SDS011;57543;45.442;9.212;2024-03-17T06:36:24;38.83;;;19.97;;
70169;SDS011;57543;45.442;9.212;2024-03-17T06:39:27;36.28;;;20.73;;
70169;SDS011;57543;45.442;9.212;2024-03-17T06:42:30;37.53;;;21.50;;
70169;SDS011;57543;45.442;9.212;2024-03-17T06:45:34;36.22;;;21.10;;
70169;SDS011;57543;45.442;9.212;2024-03-17T06:48:38;39.03;;;20.88;;
70169;SDS011;57543;45.442;9.212;2024-03-17T06:51:42;35.43;;;20.63;;
70169;SDS011;57543;45.442;9.212;2024-03-17T06:54:47;37.72;;;20.45;;
70169;SDS011;57543;45.442;9.212;2024-03-17T06:57:53;37.35;;;20.00;;
70169;SDS011;57543;45.442;9.212;2024-03-17T07:00:57;38.38;;;22.23;;
70169;SDS011;57543;45.442;9.212;2024-03-17T07:04:02;33.85;;;19.30;;
70169;SDS011;57543;45.442;9.212;2024-03-17T07:07:06;28.57;;;17.10;;
70169;SDS011;57543;45.442;9.212;2024-03-17T07:10:09;30.55;;;17.95;;
70169;SDS011;57543;45.442;9.212;2024-03-17T07:13:18;29.73;;;16.80;;
70169;SDS011;57543;45.442;9.212;2024-03-17T07:16:22;28.92;;;17.08;;
70169;SDS011;57543;45.442;9.212;2024-03-17T07:19:28;30.05;;;16.88;;
70169;SDS011;57543;45.442;9.212;2024-03-17T07:22:35;30.17;;;16.80;;
70169;SDS011;57543;45.442;9.212;2024-03-17T07:25:39;29.90;;;15.88;;
70169;SDS011;57543;45.442;9.212;2024-03-17T07:28:43;27.63;;;16.40;;
70169;SDS011;57543;45.442;9.212;2024-03-17T07:31:48;25.08;;;14.90;;
70169;SDS011;57543;45.442;9.212;2024-03-17T07:34:52;27.08;;;14.52;;
70169;SDS011;57543;45.442;9.212;2024-03-17T07:37:55;26.80;;;15.60;;
70169;SDS011;57543;45.442;9.212;2024-03-17T07:41:00;24.55;;;14.40;;
70169;SDS011;57543;45.442;9.212;2024-03-17T07:44:05;25.73;;;14.60;;
70169;SDS011;57543;45.442;9.212;2024-03-17T07:47:09;24.92;;;15.13;;
70169;SDS011;57543;45.442;9.212;2024-03-17T07:50:13;26.23;;;14.30;;
70169;SDS011;57543;45.442;9.212;2024-03-17T07:53:17;21.83;;;13.20;;
70169;SDS011;57543;45.442;9.212;2024-03-17T07:56:21;23.10;;;13.23;;
70169;SDS011;57543;45.442;9.212;2024-03-17T07:59:25;23.42;;;13.85;;
70169;SDS011;57543;45.442;9.212;2024-03-17T08:02:30;23.13;;;13.20;;
70169;SDS011;57543;45.442;9.212;2024-03-17T08:05:34;20.58;;;12.77;;
70169;SDS011;57543;45.442;9.212;2024-03-17T08:08:38;25.83;;;13.47;;
70169;SDS011;57543;45.442;9.212;2024-03-17T08:11:41;21.70;;;12.15;;
70169;SDS011;57543;45.442;9.212;2024-03-17T08:14:49;21.55;;;12.35;;
70169;SDS011;57543;45.442;9.212;2024-03-17T08:17:52;21.05;;;11.98;;
70169;SDS011;57543;45.442;9.212;2024-03-17T08:20:56;21.02;;;12.00;;
70169;SDS011;57543;45.442;9.212;2024-03-17T08:24:00;20.83;;;12.13;;
70169;SDS011;57543;45.442;9.212;2024-03-17T08:27:03;21.08;;;12.55;;
70169;SDS011;57543;45.442;9.212;2024-03-17T08:30:08;20.27;;;11.93;;
70169;SDS011;57543;45.442;9.212;2024-03-17T08:33:13;21.20;;;12.60;;
70169;SDS011;57543;45.442;9.212;2024-03-17T08:36:17;24.48;;;13.40;;
70169;SDS011;57543;45.442;9.212;2024-03-17T08:39:23;18.17;;;11.63;;
70169;SDS011;57543;45.442;9.212;2024-03-17T08:42:26;29.85;;;15.93;;
70169;SDS011;57543;45.442;9.212;2024-03-17T08:45:29;25.52;;;14.85;;
70169;SDS011;57543;45.442;9.212;2024-03-17T08:48:36;28.92;;;16.02;;
70169;SDS011;57543;45.442;9.212;2024-03-17T08:51:41;29.23;;;16.42;;
70169;SDS011;57543;45.442;9.212;2024-03-17T08:54:48;42.53;;;21.57;;
70169;SDS011;57543;45.442;9.212;2024-03-17T08:57:55;35.47;;;20.08;;
70169;SDS011;57543;45.442;9.212;2024-03-17T09:01:02;32.28;;;17.92;;
70169;SDS011;57543;45.442;9.212;2024-03-17T09:04:06;31.98;;;18.73;;
70169;SDS011;57543;45.442;9.212;2024-03-17T09:07:11;28.73;;;17.88;;
70169;SDS011;57543;45.442;9.212;2024-03-17T09:10:14;28.70;;;16.43;;
70169;SDS011;57543;45.442;9.212;2024-03-17T09:13:18;33.88;;;18.95;;
70169;SDS011;57543;45.442;9.212;2024-03-17T09:16:23;35.70;;;19.98;;
70169;SDS011;57543;45.442;9.212;2024-03-17T09:19:28;32.78;;;18.88;;
70169;SDS011;57543;45.442;9.212;2024-03-17T09:22:32;27.73;;;16.20;;
70169;SDS011;57543;45.442;9.212;2024-03-17T09:25:35;32.33;;;18.10;;
70169;SDS011;57543;45.442;9.212;2024-03-17T09:28:40;32.47;;;18.90;;
70169;SDS011;57543;45.442;9.212;2024-03-17T09:31:44;31.88;;;17.55;;
70169;SDS011;57543;45.442;9.212;2024-03-17T09:34:47;40.38;;;20.38;;
70169;SDS011;57543;45.442;9.212;2024-03-17T09:37:51;29.55;;;16.77;;
70169;SDS011;57543;45.442;9.212;2024-03-17T09:40:55;32.47;;;18.30;;
70169;SDS011;57543;45.442;9.212;2024-03-17T09:44:04;30.80;;;17.10;;
70169;SDS011;57543;45.442;9.212;2024-03-17T09:47:18;27.27;;;16.63;;
70169;SDS011;57543;45.442;9.212;2024-03-17T09:50:25;33.03;;;19.00;;
70169;SDS011;57543;45.442;9.212;2024-03-17T09:53:30;29.13;;;15.98;;
70169;SDS011;57543;45.442;9.212;2024-03-17T09:56:35;29.63;;;15.33;;
70169;SDS011;57543;45.442;9.212;2024-03-17T09:59:39;29.45;;;16.08;;
70169;SDS011;57543;45.442;9.212;2024-03-17T10:02:48;28.40;;;15.57;;
70169;SDS011;57543;45.442;9.212;2024-03-17T10:05:59;32.03;;;18.25;;
70169;SDS011;57543;45.442;9.212;2024-03-17T10:09:03;27.10;;;16.33;;
70169;SDS011;57543;45.442;9.212;2024-03-17T10:15:31;30.33;;;17.02;;
70169;SDS011;57543;45.442;9.212;2024-03-17T10:18:35;32.55;;;17.75;;
70169;SDS011;57543;45.442;9.212;2024-03-17T10:21:38;33.30;;;17.65;;
70169;SDS011;57543;45.442;9.212;2024-03-17T10:24:58;28.42;;;16.13;;
70169;SDS011;57543;45.442;9.212;2024-03-17T10:28:02;30.23;;;17.67;;
70169;SDS011;57543;45.442;9.212;2024-03-17T10:31:06;35.88;;;18.58;;
70169;SDS011;57543;45.442;9.212;2024-03-17T10:34:15;32.92;;;16.70;;
70169;SDS011;57543;45.442;9.212;2024-03-17T10:37:22;34.45;;;18.23;;
70169;SDS011;57543;45.442;9.212;2024-03-17T10:40:28;31.10;;;16.85;;
70169;SDS011;57543;45.442;9.212;2024-03-17T10:43:33;26.07;;;14.83;;
70169;SDS011;57543;45.442;9.212;2024-03-17T10:46:37;29.17;;;15.30;;
70169;SDS011;57543;45.442;9.212;2024-03-17T10:49:41;30.85;;;17.20;;
70169;SDS011;57543;45.442;9.212;2024-03-17T10:52:48;31.10;;;17.75;;
70169;SDS011;57543;45.442;9.212;2024-03-17T10:56:02;30.10;;;16.70;;
70169;SDS011;57543;45.442;9.212;2024-03-17T10:59:12;30.20;;;17.63;;
70169;SDS011;57543;45.442;9.212;2024-03-17T11:02:23;30.20;;;16.00;;
70169;SDS011;57543;45.442;9.212;2024-03-17T11:05:31;30.25;;;16.90;;
70169;SDS011;57543;45.442;9.212;2024-03-17T11:08:40;30.17;;;17.20;;
70169;SDS011;57543;45.442;9.212;2024-03-17T11:11:45;29.40;;;16.50;;
70169;SDS011;57543;45.442;9.212;2024-03-17T11:14:49;27.87;;;15.83;;
70169;SDS011;57543;45.442;9.212;2024-03-17T11:24:24;24.90;;;14.48;;
70169;SDS011;57543;45.442;9.212;2024-03-17T11:27:40;28.55;;;15.52;;
70169;SDS011;57543;45.442;9.212;2024-03-17T11:30:48;22.30;;;13.90;;
70169;SDS011;57543;45.442;9.212;2024-03-17T11:33:59;25.10;;;13.85;;
70169;SDS011;57543;45.442;9.212;2024-03-17T11:37:07;19.95;;;12.50;;
70169;SDS011;57543;45.442;9.212;2024-03-17T11:40:43;25.17;;;13.98;;
70169;SDS011;57543;45.442;9.212;2024-03-17T11:43:48;24.67;;;14.63;;
70169;SDS011;57543;45.442;9.212;2024-03-17T11:46:55;26.30;;;15.00;;
70169;SDS011;57543;45.442;9.212;2024-03-17T11:49:59;25.15;;;15.43;;
70169;SDS011;57543;45.442;9.212;2024-03-17T11:53:06;25.27;;;14.75;;
70169;SDS011;57543;45.442;9.212;2024-03-17T11:56:13;21.42;;;13.52;;
70169;SDS011;57543;45.442;9.212;2024-03-17T11:59:27;21.17;;;12.40;;
70169;SDS011;57543;45.442;9.212;2024-03-17T12:02:31;24.30;;;13.90;;
70169;SDS011;57543;45.442;9.212;2024-03-17T12:05:35;26.40;;;15.00;;
70169;SDS011;57543;45.442;9.212;2024-03-17T12:08:42;27.65;;;14.68;;
70169;SDS011;57543;45.442;9.212;2024-03-17T12:11:46;21.30;;;13.02;;
70169;SDS011;57543;45.442;9.212;2024-03-17T12:15:03;24.95;;;13.85;;
70169;SDS011;57543;45.442;9.212;2024-03-17T12:18:20;23.17;;;12.20;;
70169;SDS011;57543;45.442;9.212;2024-03-17T12:21:23;17.30;;;10.45;;
70169;SDS011;57543;45.442;9.212;2024-03-17T12:24:27;17.55;;;10.75;;
70169;SDS011;57543;45.442;9.212;2024-03-17T12:27:33;18.67;;;12.00;;
70169;SDS011;57543;45.442;9.212;2024-03-17T12:30:37;21.33;;;13.05;;
70169;SDS011;57543;45.442;9.212;2024-03-17T12:33:41;19.10;;;11.47;;
70169;SDS011;57543;45.442;9.212;2024-03-17T12:36:48;20.55;;;12.40;;
70169;SDS011;57543;45.442;9.212;2024-03-17T12:39:52;19.60;;;12.50;;
70169;SDS011;57543;45.442;9.212;2024-03-17T12:42:57;18.40;;;11.98;;
70169;SDS011;57543;45.442;9.212;2024-03-17T12:46:02;18.77;;;12.70;;
70169;SDS011;57543;45.442;9.212;2024-03-17T12:49:08;17.10;;;10.63;;
70169;SDS011;57543;45.442;9.212;2024-03-17T12:52:20;18.55;;;12.48;;
70169;SDS011;57543;45.442;9.212;2024-03-17T12:55:26;22.98;;;13.98;;
70169;SDS011;57543;45.442;9.212;2024-03-17T12:58:48;25.10;;;14.77;;
70169;SDS011;57543;45.442;9.212;2024-03-17T13:02:11;17.95;;;10.82;;
70169;SDS011;57543;45.442;9.212;2024-03-17T13:05:19;19.53;;;12.40;;
70169;SDS011;57543;45.442;9.212;2024-03-17T13:08:26;17.25;;;10.95;;
70169;SDS011;57543;45.442;9.212;2024-03-17T13:11:31;17.30;;;10.35;;
70169;SDS011;57543;45.442;9.212;2024-03-17T13:14:34;18.33;;;11.60;;
70169;SDS011;57543;45.442;9.212;2024-03-17T13:17:38;22.92;;;14.63;;
70169;SDS011;57543;45.442;9.212;2024-03-17T13:20:42;19.83;;;12.27;;
70169;SDS011;57543;45.442;9.212;2024-03-17T13:23:46;20.15;;;11.98;;
70169;SDS011;57543;45.442;9.212;2024-03-17T13:26:50;24.05;;;14.07;;
70169;SDS011;57543;45.442;9.212;2024-03-17T13:29:55;27.00;;;14.90;;
70169;SDS011;57543;45.442;9.212;2024-03-17T13:32:58;23.38;;;14.30;;
70169;SDS011;57543;45.442;9.212;2024-03-17T13:36:01;22.60;;;13.07;;
70169;SDS011;57543;45.442;9.212;2024-03-17T13:39:05;20.08;;;13.32;;
70169;SDS011;57543;45.442;9.212;2024-03-17T13:42:13;25.45;;;14.57;;
70169;SDS011;57543;45.442;9.212;2024-03-17T13:45:17;25.48;;;15.00;;
70169;SDS011;57543;45.442;9.212;2024-03-17T13:48:21;27.67;;;16.08;;
70169;SDS011;57543;45.442;9.212;2024-03-17T13:51:25;28.40;;;16.00;;
70169;SDS011;57543;45.442;9.212;2024-03-17T13:54:28;23.33;;;14.27;;
70169;SDS011;57543;45.442;9.212;2024-03-17T13:57:35;30.00;;;16.80;;
70169;SDS011;57543;45.442;9.212;2024-03-17T14:00:38;25.65;;;14.30;;
70169;SDS011;57543;45.442;9.212;2024-03-17T14:03:42;21.25;;;13.95;;
70169;SDS011;57543;45.442;9.212;2024-03-17T14:06:46;24.73;;;15.17;;
70169;SDS011;57543;45.442;9.212;2024-03-17T14:09:51;26.50;;;15.57;;
70169;SDS011;57543;45.442;9.212;2024-03-17T14:12:55;25.40;;;15.55;;
70169;SDS011;57543;45.442;9.212;2024-03-17T14:16:00;21.73;;;13.18;;
70169;SDS011;57543;45.442;9.212;2024-03-17T14:19:04;23.10;;;14.10;;
70169;SDS011;57543;45.442;9.212;2024-03-17T14:22:07;20.57;;;13.00;;
70169;SDS011;57543;45.442;9.212;2024-03-17T14:25:15;23.83;;;13.80;;
70169;SDS011;57543;45.442;9.212;2024-03-17T14:28:20;25.40;;;15.88;;
70169;SDS011;57543;45.442;9.212;2024-03-17T14:31:25;24.90;;;15.57;;
70169;SDS011;57543;45.442;9.212;2024-03-17T14:34:29;25.27;;;15.30;;
70169;SDS011;57543;45.442;9.212;2024-03-17T14:37:38;25.37;;;15.33;;
70169;SDS011;57543;45.442;9.212;2024-03-17T14:40:42;21.00;;;13.15;;
70169;SDS011;57543;45.442;9.212;2024-03-17T14:43:45;24.95;;;15.05;;
70169;SDS011;57543;45.442;9.212;2024-03-17T14:46:50;25.17;;;13.57;;
70169;SDS011;57543;45.442;9.212;2024-03-17T14:49:54;26.00;;;14.73;;
70169;SDS011;57543;45.442;9.212;2024-03-17T14:52:58;24.57;;;15.10;;
70169;SDS011;57543;45.442;9.212;2024-03-17T14:56:02;27.85;;;16.38;;
70169;SDS011;57543;45.442;9.212;2024-03-17T14:59:06;29.15;;;17.27;;
70169;SDS011;57543;45.442;9.212;2024-03-17T15:02:11;28.55;;;16.30;;
70169;SDS011;57543;45.442;9.212;2024-03-17T15:05:14;22.90;;;14.40;;
70169;SDS011;57543;45.442;9.212;2024-03-17T15:08:18;22.83;;;14.23;;
70169;SDS011;57543;45.442;9.212;2024-03-17T15:11:22;20.58;;;13.13;;
70169;SDS011;57543;45.442;9.212;2024-03-17T15:14:26;19.83;;;13.18;;
70169;SDS011;57543;45.442;9.212;2024-03-17T15:17:29;21.38;;;12.93;;
70169;SDS011;57543;45.442;9.212;2024-03-17T15:20:34;16.35;;;10.95;;
70169;SDS011;57543;45.442;9.212;2024-03-17T15:23:38;19.80;;;12.30;;
70169;SDS011;57543;45.442;9.212;2024-03-17T15:26:43;20.52;;;12.23;;
70169;SDS011;57543;45.442;9.212;2024-03-17T15:33:30;23.10;;;14.10;;
70169;SDS011;57543;45.442;9.212;2024-03-17T15:36:38;23.92;;;14.43;;
70169;SDS011;57543;45.442;9.212;2024-03-17T15:39:42;23.87;;;14.03;;
70169;SDS011;57543;45.442;9.212;2024-03-17T15:42:48;21.45;;;12.52;;
70169;SDS011;57543;45.442;9.212;2024-03-17T15:45:53;22.60;;;13.88;;
70169;SDS011;57543;45.442;9.212;2024-03-17T15:48:57;21.40;;;13.38;;
70169;SDS011;57543;45.442;9.212;2024-03-17T15:52:02;20.52;;;12.25;;
70169;SDS011;57543;45.442;9.212;2024-03-17T15:55:06;22.53;;;13.77;;
70169;SDS011;57543;45.442;9.212;2024-03-17T15:58:11;23.70;;;13.73;;
70169;SDS011;57543;45.442;9.212;2024-03-17T16:01:16;25.15;;;14.30;;
70169;SDS011;57543;45.442;9.212;2024-03-17T16:04:20;21.63;;;13.20;;
70169;SDS011;57543;45.442;9.212;2024-03-17T16:07:27;25.67;;;14.02;;
70169;SDS011;57543;45.442;9.212;2024-03-17T16:10:32;21.17;;;13.17;;
70169;SDS011;57543;45.442;9.212;2024-03-17T16:13:37;23.10;;;13.63;;
70169;SDS011;57543;45.442;9.212;2024-03-17T16:16:43;22.92;;;13.93;;
70169;SDS011;57543;45.442;9.212;2024-03-17T16:19:47;26.63;;;15.43;;
70169;SDS011;57543;45.442;9.212;2024-03-17T16:22:52;24.80;;;14.90;;
70169;SDS011;57543;45.442;9.212;2024-03-17T16:25:58;31.77;;;18.80;;
70169;SDS011;57543;45.442;9.212;2024-03-17T16:29:02;29.65;;;17.30;;
70169;SDS011;57543;45.442;9.212;2024-03-17T16:32:09;27.65;;;16.40;;
70169;SDS011;57543;45.442;9.212;2024-03-17T16:35:13;30.48;;;18.00;;
70169;SDS011;57543;45.442;9.212;2024-03-17T16:38:17;27.58;;;16.08;;
70169;SDS011;57543;45.442;9.212;2024-03-17T16:41:23;28.80;;;16.60;;
70169;SDS011;57543;45.442;9.212;2024-03-17T16:44:33;30.98;;;18.10;;
70169;SDS011;57543;45.442;9.212;2024-03-17T16:47:46;28.80;;;17.30;;
70169;SDS011;57543;45.442;9.212;2024-03-17T16:50:51;34.00;;;19.30;;
70169;SDS011;57543;45.442;9.212;2024-03-17T16:53:55;26.77;;;16.38;;
70169;SDS011;57543;45.442;9.212;2024-03-17T16:57:00;31.50;;;17.63;;
70169;SDS011;57543;45.442;9.212;2024-03-17T17:00:04;29.67;;;17.10;;
70169;SDS011;57543;45.442;9.212;2024-03-17T17:03:18;25.95;;;14.95;;
70169;SDS011;57543;45.442;9.212;2024-03-17T17:06:21;30.83;;;16.40;;
70169;SDS011;57543;45.442;9.212;2024-03-17T17:09:25;27.63;;;17.17;;
70169;SDS011;57543;45.442;9.212;2024-03-17T17:12:29;28.60;;;16.70;;
70169;SDS011;57543;45.442;9.212;2024-03-17T17:15:33;27.25;;;15.98;;
70169;SDS011;57543;45.442;9.212;2024-03-17T17:18:47;28.90;;;17.77;;
70169;SDS011;57543;45.442;9.212;2024-03-17T17:21:53;24.88;;;15.05;;
70169;SDS011;57543;45.442;9.212;2024-03-17T17:24:57;29.65;;;17.15;;
70169;SDS011;57543;45.442;9.212;2024-03-17T17:28:01;22.87;;;13.87;;
70169;SDS011;57543;45.442;9.212;2024-03-17T17:31:05;20.90;;;12.93;;
70169;SDS011;57543;45.442;9.212;2024-03-17T17:34:09;20.92;;;12.90;;
70169;SDS011;57543;45.442;9.212;2024-03-17T17:37:14;26.27;;;14.90;;
70169;SDS011;57543;45.442;9.212;2024-03-17T17:40:20;27.55;;;17.30;;
70169;SDS011;57543;45.442;9.212;2024-03-17T17:43:25;22.40;;;13.40;;
70169;SDS011;57543;45.442;9.212;2024-03-17T17:46:29;26.90;;;15.75;;
70169;SDS011;57543;45.442;9.212;2024-03-17T17:49:33;29.67;;;16.48;;
70169;SDS011;57543;45.442;9.212;2024-03-17T17:52:37;27.30;;;17.35;;
70169;SDS011;57543;45.442;9.212;2024-03-17T17:55:41;24.08;;;15.35;;
70169;SDS011;57543;45.442;9.212;2024-03-17T17:58:46;27.77;;;17.30;;
70169;SDS011;57543;45.442;9.212;2024-03-17T18:01:51;28.52;;;18.38;;
70169;SDS011;57543;45.442;9.212;2024-03-17T18:04:57;29.27;;;17.25;;
70169;SDS011;57543;45.442;9.212;2024-03-17T18:08:01;31.70;;;18.40;;
70169;SDS011;57543;45.442;9.212;2024-03-17T18:11:05;26.40;;;15.90;;
70169;SDS011;57543;45.442;9.212;2024-03-17T18:14:10;30.33;;;16.50;;
70169;SDS011;57543;45.442;9.212;2024-03-17T18:17:14;23.80;;;14.35;;